Alpine, Pennsylvania
Current Conditions -  °F | °C
As of 3:56 AM on Thursday 18 Dec 2014 (Local Time) from KCXY Reporting Station
Overcast Overcast  
Wind Chill: 24°   Ceiling: 4900
Heat Index: 35°   Visibility: 10mi
Dew Point: 17°   Wind: 18mph
Humidity: 48%   Direction: 300°WNW
Pressure: 30.06"   Gusts: 28mph
Location:  40.1328°N, 76.8833°W
Report Text: KCXY 180856Z AUTO 30016G24KT 10SM OVC049 02/M08 A3006 RMK AO2 SLP184 T00171083 51008
Loading
Personal Weather Stations






























Interactive Weather Map New forecast layout! Learn more

10-Day Weather Forecast

Advertisements
Track Severe Weather on mobile